Data for 06/06/2006

Time Sea-Level Adjusted Pressure Absolute Pressure Temperature Relative Humidity Dew Point   
(mb) (inHg) (mb) (inHg) (C) (F) (%) (C) (F)
00:05 1018 30.06 847 25.01 16 60.8 50 5.6 42
00:10 1018 30.06 847 25.01 15.9 60.7 49 5.4 41.6
00:15 1018 30.06 847 25.01 16 60.7 49 5.3 41.6
00:20 1018 30.06 847 25.01 16 60.7 49 5.2 41.4
00:25 1018 30.06 847 25.01 15.9 60.7 49 5.3 41.6
00:30 1018 30.06 847 25.01 15.9 60.7 48 5.2 41.3
00:35 1018 30.06 847 25.01 16 60.7 49 5.4 41.7
00:40 1018 30.06 847 25.01 15.7 60.3 50 5.3 41.6
00:45 1018 30.06 847 25.01 15.8 60.4 49 5.1 41.1
00:50 1018 30.06 847 25.01 15.9 60.6 48 5.1 41.2
00:55 1018 30.06 847 25.01 15.8 60.4 49 5.3 41.6
01:00 1018 30.06 847 25.01 15.7 60.3 49 5.1 41.2
01:05 1018 30.06 847 25.01 15.8 60.5 48 5 40.9
01:10 1018 30.06 847 25.01 15.8 60.4 49 5.3 41.5
01:15 1018 30.06 847 25.01 15.6 60.1 54 6.6 43.8
01:20 1018 30.06 847 25.01 15.5 60 49 5.1 41.2
01:25 1018 30.06 847 25.01 15.4 59.7 51 5.5 41.9
01:30 1018 30.06 847 25.01 14.9 58.9 54 5.8 42.4
01:35 1018 30.06 848 25.04 14.6 58.3 52 5 40.9
01:40 1018 30.06 848 25.04 15.2 59.4 49 4.6 40.2
01:45 1018 30.06 848 25.04 15.5 59.9 48 4.6 40.2
01:50 1018 30.06 848 25.04 15.7 60.2 51 5.7 42.2
01:55 1019 30.09 848 25.04 15.2 59.3 55 6.3 43.3
02:00 1019 30.09 848 25.04 13.8 56.9 59 6.1 42.9
02:05 1019 30.09 848 25.04 13.1 55.5 60 5.5 41.9
02:10 1018 30.06 848 25.04 13.1 55.6 60 5.5 41.8
02:15 1019 30.09 848 25.04 13.1 55.5 61 5.7 42.3
02:20 1019 30.09 848 25.04 12.7 54.9 65 6.3 43.3
02:25 1019 30.09 848 25.04 12.4 54.4 65 6 42.8
02:30 1019 30.09 848 25.04 12 53.5 66 5.9 42.6
02:35 1019 30.09 848 25.04 12.1 53.7 64 5.6 42
02:40 1019 30.09 848 25.04 12.2 53.9 65 5.8 42.5
02:45 1019 30.09 848 25.04 11.8 53.3 65 5.6 42
02:50 1019 30.09 848 25.04 11.8 53.3 66 5.7 42.2
02:55 1019 30.09 848 25.04 11.6 52.9 68 5.9 42.6
03:00 1019 30.09 848 25.04 11.6 52.9 66 5.5 41.8
03:05 1019 30.09 848 25.04 11.7 53 65 5.3 41.5
03:10 1019 30.09 848 25.04 11.9 53.4 64 5.4 41.8
03:15 1019 30.09 848 25.04 12 53.5 63 5.2 41.4
03:20 1019 30.09 848 25.04 12.4 54.3 61 5.1 41.2
03:25 1019 30.09 848 25.04 12.2 54 62 5.3 41.6
03:30 1019 30.09 848 25.04 12 53.6 63 5.3 41.6
03:35 1019 30.09 848 25.04 12 53.7 63 5.3 41.5
03:40 1019 30.09 848 25.04 12.1 53.7 63 5.3 41.6
03:45 1019 30.09 849 25.07 11.6 52.9 68 5.9 42.6
03:50 1019 30.09 849 25.07 11.1 52 67 5.3 41.5
03:55 1019 30.09 849 25.07 11.5 52.7 64 5 40.9
04:00 1020 30.12 849 25.07 11.9 53.5 63 5.2 41.4
04:05 1020 30.12 849 25.07 11.7 53.1 65 5.4 41.7
04:10 1020 30.12 849 25.07 11.8 53.3 63 5.1 41.1
04:15 1020 30.12 849 25.07 11.8 53.2 64 5.3 41.5
04:20 1020 30.12 849 25.07 11.7 53 65 5.4 41.8
04:25 1020 30.12 849 25.07 11.8 53.2 66 5.7 42.2
04:30 1020 30.12 849 25.07 11.5 52.7 66 5.5 41.9
04:35 1020 30.12 849 25.07 11 51.9 68 5.5 41.9
04:40 1020 30.12 849 25.07 10.9 51.6 68 5.2 41.3
04:45 1020 30.12 849 25.07 11.1 52 67 5.3 41.6
04:50 1020 30.12 849 25.07 10.9 51.6 69 5.5 41.9
04:55 1020 30.12 849 25.07 10.7 51.2 70 5.4 41.7
05:00 1020 30.12 849 25.07 10.4 50.7 71 5.3 41.6
05:05 1020 30.12 849 25.07 10.7 51.3 68 5.2 41.3
05:10 1020 30.12 849 25.07 11.2 52.1 66 5.1 41.1
05:15 1020 30.12 849 25.07 11.6 52.9 64 5.1 41.1
05:20 1020 30.12 850 25.1 11.9 53.4 63 5.2 41.4
05:25 1020 30.12 850 25.1 11.7 53.1 64 5.2 41.4
05:30 1020 30.12 850 25.1 11.7 53.1 65 5.4 41.7
05:35 1020 30.12 850 25.1 11.3 52.3 67 5.4 41.7
05:40 1021 30.15 850 25.1 11.1 52 67 5.2 41.3
05:45 1021 30.15 850 25.1 11 51.8 67 5.1 41.2
05:50 1021 30.15 850 25.1 11.1 51.9 67 5.2 41.4
05:55 1021 30.15 850 25.1 11.3 52.3 67 5.3 41.6
06:00 1021 30.15 850 25.1 11.6 52.8 65 5.2 41.4
06:05 1021 30.15 850 25.1 11.6 52.8 66 5.4 41.7
06:10 1021 30.15 850 25.1 11.5 52.6 66 5.5 41.8
06:15 1021 30.15 850 25.1 11.3 52.3 67 5.4 41.7
06:20 1021 30.15 850 25.1 11.2 52.2 67 5.4 41.7
06:25 1021 30.15 850 25.1 11.3 52.3 67 5.5 41.9
06:30 1021 30.15 850 25.1 11.3 52.3 67 5.4 41.8
06:35 1021 30.15 850 25.1 11.4 52.5 67 5.6 42
06:40 1021 30.15 850 25.1 11.5 52.7 67 5.6 42.1
06:45 1021 30.15 850 25.1 11.7 53.1 66 5.7 42.2
06:50 1021 30.15 850 25.1 12 53.5 65 5.6 42.1
06:55 1021 30.15 850 25.1 12.3 54.1 65 5.9 42.5
07:00 1021 30.15 850 25.1 12.5 54.4 64 6 42.7
07:05 1021 30.15 850 25.1 12.5 54.6 63 5.8 42.5
07:10 1021 30.15 850 25.1 12.8 55.1 63 6 42.7
07:15 1021 30.15 850 25.1 13.2 55.7 61 5.9 42.7
07:20 1021 30.15 850 25.1 13.4 56.1 61 6.1 43
07:25 1021 30.15 850 25.1 13.5 56.3 61 6.2 43.1
07:30 1021 30.15 850 25.1 13.8 56.8 59 6 42.8
07:35 1021 30.15 850 25.1 14 57.1 59 6.2 43.1
07:40 1021 30.15 850 25.1 14.2 57.6 59 6.3 43.3
07:45 1021 30.15 850 25.1 14.5 58 58 6.4 43.6
07:50 1021 30.15 850 25.1 14.7 58.5 59 6.8 44.3
07:55 1021 30.15 850 25.1 15 59 57 6.7 44.1
08:00 1021 30.15 850 25.1 15.3 59.5 58 7.1 44.7
08:05 1021 30.15 851 25.13 15.8 60.5 55 6.9 44.3
08:10 1021 30.15 851 25.13 16.4 61.5 55 7.3 45.2
08:15 1021 30.15 850 25.1 17.1 62.8 52 7.2 44.9
08:20 1021 30.15 850 25.1 17.3 63.2 51 7.3 45.1
08:25 1021 30.15 850 25.1 17.7 63.9 50 7.3 45.2
08:30 1021 30.15 850 25.1 17.9 64.3 51 7.7 45.9
08:35 1021 30.15 850 25.1 17.5 63.4 51 7.4 45.3
08:40 1021 30.15 851 25.13 17.5 63.4 46 5.9 42.6
08:45 1021 30.15 850 25.1 17.9 64.3 48 6.8 44.2
08:50 1021 30.15 851 25.13 18.4 65.2 45 6.4 43.6
08:55 1021 30.15 851 25.13 18.8 65.8 42 5.9 42.6
09:00 1021 30.15 851 25.13 18.8 65.8 42 5.8 42.5
09:05 1021 30.15 850 25.1 18.7 65.7 41 5.5 41.8
09:10 1021 30.15 850 25.1 18.9 66 43 6.2 43.2
09:15 1021 30.15 850 25.1 19.8 67.6 39 5.6 42.1
09:20 1021 30.15 850 25.1 20.1 68.3 40 6.4 43.5
09:25 1021 30.15 850 25.1 19.7 67.5 40 6.1 42.9
09:30 1021 30.15 850 25.1 19.7 67.4 41 6.1 42.9
09:35 1021 30.15 850 25.1 19.5 67.1 41 5.9 42.7
09:40 1021 30.15 850 25.1 19.9 67.8 39 5.7 42.3
09:45 1021 30.15 850 25.1 19.8 67.7 39 5.4 41.8
09:50 1021 30.15 850 25.1 20 68 39 5.7 42.2
09:55 1021 30.15 850 25.1 20.2 68.3 39 6.1 42.9
10:00 1021 30.15 850 25.1 20.6 69.1 38 5.9 42.7
10:05 1021 30.15 850 25.1 21.3 70.3 37 6.1 43
10:10 1021 30.15 850 25.1 22 71.6 37 6.7 44.1
10:15 1021 30.15 850 25.1 21.9 71.5 37 6.9 44.4
10:20 1021 30.15 850 25.1 22.2 72 35 6.3 43.3
10:25 1021 30.15 850 25.1 21.8 71.3 38 6.9 44.4
10:30 1021 30.15 850 25.1 21.1 69.9 38 6.3 43.4
10:35 1021 30.15 850 25.1 21.5 70.7 37 6.3 43.3
10:40 1021 30.15 850 25.1 22.5 72.5 34 6 42.8
10:45 1021 30.15 850 25.1 22.3 72.1 34 6 42.9
10:50 1021 30.15 850 25.1 22.1 71.7 37 6.7 44.1
10:55 1021 30.15 850 25.1 22.1 71.8 35 6.1 43
11:00 1021 30.15 850 25.1 22.8 73 35 6.6 43.8
11:05 1021 30.15 850 25.1 23.2 73.8 35 7 44.5
11:10 1021 30.15 850 25.1 23.3 74 34 6.8 44.3
11:15 1021 30.15 850 25.1 23 73.5 35 7.1 44.8
11:20 1021 30.15 850 25.1 23.5 74.3 36 7.6 45.7
11:25 1021 30.15 850 25.1 23.6 74.4 35 7.5 45.5
11:30 1021 30.15 850 25.1 23.6 74.4 36 7.7 45.8
11:35 1021 30.15 850 25.1 23.5 74.3 35 7.5 45.5
11:40 1021 30.15 850 25.1 23.8 74.9 32 6.5 43.6
11:45 1021 30.15 850 25.1 23.8 74.9 34 7.4 45.3
11:50 1021 30.15 850 25.1 24 75.3 34 7.5 45.5
11:55 1021 30.15 850 25.1 23.8 74.8 35 7.8 46
12:00 1021 30.15 850 25.1 23.6 74.4 34 6.8 44.3
12:05 1021 30.15 850 25.1 23.3 74 35 7 44.7
12:10 1021 30.15 850 25.1 22.8 73.1 37 7.6 45.7
12:15 1021 30.15 850 25.1 23.2 73.7 35 7.2 44.9
12:20 1021 30.15 850 25.1 23.6 74.4 34 7.1 44.8
12:25 1021 30.15 850 25.1 23.7 74.6 35 7.4 45.3
12:30 1021 30.15 850 25.1 24 75.1 33 6.8 44.2
12:35 1021 30.15 850 25.1 24.6 76.3 31 6.8 44.2
12:40 1021 30.15 850 25.1 24.9 76.7 32 7.2 44.9
12:45 1021 30.15 850 25.1 24.8 76.6 31 7 44.6
12:50 1021 30.15 850 25.1 25.1 77.2 29 6 42.7
12:55 1021 30.15 850 25.1 25.8 78.4 29 6.9 44.4
13:00 1020 30.12 850 25.1 25.3 77.5 31 7.2 44.9
13:05 1020 30.12 850 25.1 25.7 78.2 29 6.4 43.5
13:10 1020 30.12 850 25.1 26.1 79 28 6.6 43.8
13:15 1020 30.12 850 25.1 26.2 79.2 28 6.7 44.1
13:20 1020 30.12 849 25.07 25.6 78.1 29 6.4 43.6
13:25 1020 30.12 849 25.07 24.7 76.5 30 6.4 43.6
13:30 1020 30.12 849 25.07 24.9 76.8 32 7.3 45.2
13:35 1020 30.12 849 25.07 26 78.9 28 6.6 43.9
13:40 1020 30.12 849 25.07 25.8 78.4 28 6.3 43.3
13:45 1020 30.12 849 25.07 26.3 79.3 27 6 42.8
13:50 1020 30.12 849 25.07 26.3 79.4 27 6.3 43.3
13:55 1020 30.12 849 25.07 26 78.9 28 6.1 43.1
14:00 1020 30.12 849 25.07 26.6 79.8 27 6.2 43.1
14:05 1020 30.12 849 25.07 26.6 79.9 26 5.8 42.5
14:10 1020 30.12 849 25.07 26.6 79.8 26 5.5 41.9
14:15 1020 30.12 849 25.07 26.8 80.3 25 5.6 42.1
14:20 1020 30.12 849 25.07 26.8 80.3 25 5.5 42
14:25 1020 30.12 849 25.07 26.1 79 27 5.7 42.2
14:30 1020 30.12 849 25.07 26.3 79.3 25 4.9 40.8
14:35 1020 30.12 849 25.07 26.4 79.4 25 5.1 41.2
14:40 1020 30.12 849 25.07 26.3 79.3 24 4.7 40.4
14:45 1020 30.12 849 25.07 27 80.6 22 3.9 39
14:50 1020 30.12 849 25.07 25.8 78.5 25 4.5 40.2
14:55 1020 30.12 849 25.07 25.6 78.1 26 4.8 40.7
15:00 1020 30.12 849 25.07 26.7 80.1 23 4.3 39.7
15:05 1020 30.12 849 25.07 27 80.7 24 5 41.1
15:10 1020 30.12 849 25.07 26.8 80.3 22 3.8 38.8
15:15 1020 30.12 849 25.07 26.5 79.7 24 4.5 40.1
15:20 1019 30.09 849 25.07 26.6 79.9 20 2.2 36
15:25 1019 30.09 849 25.07 26.4 79.4 21 2.6 36.7
15:30 1019 30.09 849 25.07 26.5 79.7 21 2.8 37
15:35 1019 30.09 849 25.07 26.5 79.7 21 2.8 37.1
15:40 1019 30.09 849 25.07 26.5 79.8 20 2.2 36
15:45 1019 30.09 848 25.04 27 80.5 20 2.6 36.6
15:50 1019 30.09 848 25.04 27.4 81.4 19 2.2 36
15:55 1019 30.09 848 25.04 28.1 82.6 18 1.8 35.3
16:00 1019 30.09 848 25.04 28.3 82.9 18 2.3 36.1
16:05 1019 30.09 848 25.04 28 82.4 19 2.4 36.2
16:10 1019 30.09 848 25.04 28.3 82.9 17 1.4 34.6
16:15 1019 30.09 848 25.04 27.6 81.7 19 2.6 36.6
16:20 1019 30.09 848 25.04 28 82.4 19 2.4 36.3
16:25 1019 30.09 848 25.04 27.7 81.8 19 2.2 35.9
16:30 1019 30.09 848 25.04 27.5 81.4 20 2.7 36.9
16:35 1019 30.09 848 25.04 27.3 81.2 22 4 39.2
16:40 1019 30.09 848 25.04 27.8 82.1 23 5.1 41.3
16:45 1019 30.09 848 25.04 27.5 81.4 27 6.9 44.3
16:50 1019 30.09 848 25.04 27.7 81.9 25 6.3 43.3
16:55 1018 30.06 848 25.04 26.8 80.2 28 6.9 44.5
17:00 1018 30.06 848 25.04 26.3 79.4 28 6.7 44.1
17:05 1018 30.06 848 25.04 26.5 79.6 28 6.5 43.7
17:10 1018 30.06 848 25.04 26.4 79.6 28 6.7 44.1
17:15 1018 30.06 848 25.04 26.4 79.6 28 6.5 43.8
17:20 1018 30.06 848 25.04 26.4 79.5 28 6.9 44.4
17:25 1018 30.06 848 25.04 26.1 78.9 28 6.5 43.8
17:30 1018 30.06 848 25.04 25.6 78.1 29 6.4 43.6
17:35 1018 30.06 848 25.04 25.5 77.8 29 6.5 43.8
17:40 1018 30.06 848 25.04 25.5 77.9 29 6.4 43.5
17:45 1018 30.06 847 25.01 25.3 77.5 29 6.3 43.3
17:50 1018 30.06 847 25.01 25.5 77.9 28 6 42.9
17:55 1018 30.06 847 25.01 25.3 77.6 30 6.8 44.3
18:00 1018 30.06 847 25.01 25.3 77.6 29 6.3 43.3
18:05 1018 30.06 847 25.01 25.1 77.2 30 6.6 43.9
18:10 1018 30.06 847 25.01 25.1 77.2 30 6.5 43.8
18:15 1018 30.06 847 25.01 25.1 77.1 30 6.5 43.7
18:20 1018 30.06 847 25.01 25 76.9 31 6.9 44.5
18:25 1018 30.06 847 25.01 24.9 76.7 31 6.8 44.3
18:30 1018 30.06 847 25.01 24.8 76.6 31 6.8 44.2
18:35 1018 30.06 847 25.01 24.6 76.3 32 6.9 44.5
18:40 1018 30.06 847 25.01 24.2 75.6 32 6.8 44.3
18:45 1018 30.06 847 25.01 24 75.2 32 6.7 44
18:50 1018 30.06 847 25.01 24.1 75.4 32 6.8 44.2
18:55 1018 30.06 847 25.01 24.1 75.3 33 6.9 44.5
19:00 1018 30.06 847 25.01 23.9 75 33 7 44.6
19:05 1018 30.06 847 25.01 23.9 75 33 6.8 44.3
19:10 1018 30.06 847 25.01 24 75.1 33 6.8 44.3
19:15 1018 30.06 847 25.01 23.9 75 33 6.9 44.5
19:20 1018 30.06 847 25.01 23.7 74.6 35 7.4 45.2
19:25 1018 30.06 847 25.01 23.4 74.1 35 7.4 45.3
19:30 1018 30.06 847 25.01 23.2 73.8 36 7.4 45.3
19:35 1018 30.06 847 25.01 23.1 73.6 36 7.4 45.3
19:40 1018 30.06 847 25.01 23 73.3 36 7.3 45.1
19:45 1018 30.06 847 25.01 22.8 73 37 7.4 45.4
19:50 1018 30.06 847 25.01 22.7 72.8 38 7.7 45.8
19:55 1018 30.06 847 25.01 22.6 72.6 38 7.7 45.9
20:00 1018 30.06 847 25.01 22.5 72.4 38 7.5 45.5
20:05 1018 30.06 847 25.01 22.4 72.2 37 7.3 45.1
20:10 1018 30.06 847 25.01 22.3 72.1 37 7.2 45
20:15 1018 30.06 847 25.01 22.2 72 38 7.5 45.4
20:20 1018 30.06 847 25.01 22.1 71.7 39 7.5 45.5
20:25 1018 30.06 847 25.01 21.9 71.5 39 7.4 45.4
20:30 1018 30.06 847 25.01 21.9 71.3 39 7.4 45.3
20:35 1018 30.06 847 25.01 21.8 71.2 39 7.4 45.3
20:40 1018 30.06 847 25.01 21.6 70.9 39 7.4 45.3
20:45 1018 30.06 847 25.01 21.6 70.8 39 7.2 45
20:50 1018 30.06 847 25.01 21.4 70.5 40 7.3 45.1
20:55 1018 30.06 847 25.01 21.3 70.4 40 7.4 45.3
21:00 1018 30.06 847 25.01 21.2 70.1 40 7.2 44.9
21:05 1018 30.06 847 25.01 21 69.9 40 7.2 44.9
21:10 1018 30.06 847 25.01 21 69.9 39 6.9 44.4
21:15 1018 30.06 847 25.01 21 69.7 40 7.1 44.8
21:20 1018 30.06 847 25.01 20.8 69.4 41 7.1 44.8
21:25 1018 30.06 847 25.01 20.6 69.1 40 6.9 44.3
21:30 1018 30.06 847 25.01 20.6 69.1 40 6.9 44.4
21:35 1018 30.06 847 25.01 20.5 68.8 41 6.9 44.4
21:40 1018 30.06 847 25.01 20.4 68.6 41 7 44.5
21:45 1018 30.06 847 25.01 20.3 68.5 42 6.9 44.5
21:50 1018 30.06 847 25.01 20.2 68.3 41 6.8 44.3
21:55 1018 30.06 847 25.01 20.2 68.3 41 6.8 44.3
22:00 1018 30.06 848 25.04 20 68.1 41 6.7 44
22:05 1018 30.06 848 25.04 20 68 42 6.7 44
22:10 1019 30.09 848 25.04 19.9 67.9 41 6.6 43.9
22:15 1019 30.09 848 25.04 19.9 67.7 42 6.6 43.8
22:20 1019 30.09 848 25.04 19.8 67.6 42 6.5 43.7
22:25 1019 30.09 848 25.04 19.8 67.6 42 6.5 43.8
22:30 1019 30.09 848 25.04 19.8 67.6 42 6.6 43.9
22:35 1019 30.09 848 25.04 19.6 67.3 42 6.5 43.8
22:40 1019 30.09 848 25.04 19.6 67.2 42 6.5 43.7
22:45 1019 30.09 848 25.04 19.5 67.1 43 6.6 43.9
22:50 1019 30.09 848 25.04 19.4 66.9 43 6.6 43.9
22:55 1019 30.09 848 25.04 19.3 66.8 43 6.6 43.9
23:00 1019 30.09 848 25.04 19.3 66.7 43 6.6 43.9
23:05 1019 30.09 848 25.04 19.3 66.7 43 6.6 43.9
23:10 1019 30.09 848 25.04 19.2 66.5 43 6.5 43.7
23:15 1019 30.09 848 25.04 19.1 66.4 44 6.5 43.8
23:20 1019 30.09 848 25.04 19 66.2 44 6.6 43.8
23:25 1019 30.09 848 25.04 18.9 66 44 6.5 43.7
23:30 1019 30.09 848 25.04 18.8 65.8 45 6.6 43.9
23:35 1019 30.09 848 25.04 18.7 65.7 44 6.5 43.7
23:40 1019 30.09 848 25.04 18.6 65.5 45 6.5 43.7
23:45 1019 30.09 848 25.04 18.5 65.4 45 6.6 43.8
23:50 1019 30.09 848 25.04 18.5 65.4 44 6.3 43.4
23:55 1019 30.09 848 25.04 18.6 65.4 45 6.4 43.5
24:00 1019 30.09 848 25.04 18.5 65.2 45 6.4 43.5